Time;durP1;ratioP1;P1;durP2;ratioP2;P2;SDS_P1;SDS_P2;PMS_P1;PMS_P2;Temp;Humidity;BMP_temperature;BMP_pressure;BME280_temperature;BME280_humidity;BME280_pressure;Samples;Min_cycle;Max_cycle;Signal;HPM_P1;HPM_P2
2023/04/08 00:01:52;;;;;;;;;;;17.00;65.40;;;;;;5073253;28;1290;-68
2023/04/08 00:04:17;;;;;;;;;;;17.00;65.40;;;;;;5073240;28;1415;-68
2023/04/08 00:06:43;;;;;;;;;;;17.00;65.40;;;;;;5073903;28;1465;-68
2023/04/08 00:09:08;;;;;;;;;;;17.00;65.50;;;;;;5074141;28;1913;-68
2023/04/08 00:11:34;;;;;;;;;;;17.00;65.40;;;;;;5070168;28;1224;-67
2023/04/08 00:14:01;;;;;;;;;;;17.00;65.50;;;;;;5071981;28;1360;-70
2023/04/08 00:16:27;;;;;;;;;;;17.00;65.50;;;;;;5074396;28;1385;-70
2023/04/08 00:18:52;;;;;;;;;;;17.00;65.50;;;;;;5077544;28;1507;-68
2023/04/08 00:21:19;;;;;;;;;;;17.00;65.50;;;;;;5071940;28;1422;-68
2023/04/08 00:23:45;;;;;;;;;;;17.00;65.50;;;;;;5072317;28;1310;-67
2023/04/08 00:26:10;;;;;;;;;;;17.00;65.50;;;;;;5074139;28;1343;-67
2023/04/08 00:28:36;;;;;;;;;;;17.00;65.50;;;;;;5073213;28;1344;-67
2023/04/08 00:31:02;;;;;;;;;;;17.00;65.50;;;;;;5072104;28;1898;-67
2023/04/08 00:33:27;;;;;;;;;;;17.00;65.50;;;;;;5070440;28;1259;-69
2023/04/08 00:35:53;;;;;;;;;;;17.00;65.50;;;;;;5069125;28;1339;-69
2023/04/08 00:38:18;;;;;;;;;;;17.00;65.50;;;;;;5072958;28;1394;-70
2023/04/08 00:40:44;;;;;;;;;;;17.00;65.60;;;;;;5070792;28;1313;-69
2023/04/08 00:43:09;;;;;;;;;;;17.00;65.60;;;;;;5071203;28;1257;-69
2023/04/08 00:45:35;;;;;;;;;;;17.00;65.60;;;;;;5073796;28;2128;-68
2023/04/08 00:48:01;;;;;;;;;;;17.00;65.60;;;;;;5075511;28;887;-68
2023/04/08 00:50:27;;;;;;;;;;;17.00;66.40;;;;;;5072468;28;1910;-68
2023/04/08 00:52:52;;;;;;;;;;;17.00;65.60;;;;;;5072232;28;836;-67
2023/04/08 00:55:17;;;;;;;;;;;17.00;65.60;;;;;;5070823;28;1360;-68
2023/04/08 00:57:43;;;;;;;;;;;17.00;65.60;;;;;;5073206;28;879;-68
2023/04/08 01:00:09;;;;;;;;;;;17.00;65.60;;;;;;5073144;28;863;-68
2023/04/08 01:02:37;;;;;;;;;;;17.00;65.60;;;;;;5070708;28;916;-68
2023/04/08 01:05:03;;;;;;;;;;;17.00;65.60;;;;;;5068732;28;1262;-67
2023/04/08 01:07:35;;;;;;;;;;;17.00;65.70;;;;;;5066247;28;891;-68
2023/04/08 01:10:02;;;;;;;;;;;16.90;65.60;;;;;;5067904;28;1972;-68
2023/04/08 01:12:29;;;;;;;;;;;16.90;65.60;;;;;;5073473;28;892;-68
2023/04/08 01:14:56;;;;;;;;;;;17.00;65.70;;;;;;5071851;28;1401;-68
2023/04/08 01:17:21;;;;;;;;;;;16.90;65.70;;;;;;5072197;28;887;-68
2023/04/08 01:19:47;;;;;;;;;;;17.00;65.70;;;;;;5062209;28;1473;-70
2023/04/08 01:22:24;;;;;;;;;;;16.90;65.70;;;;;;5076162;28;805;-69
2023/04/08 01:24:50;;;;;;;;;;;16.90;65.70;;;;;;5077735;28;1350;-68
2023/04/08 01:27:15;;;;;;;;;;;17.00;65.70;;;;;;5073266;28;966;-70
2023/04/08 01:29:41;;;;;;;;;;;16.90;65.70;;;;;;5075169;28;1962;-70
2023/04/08 01:32:06;;;;;;;;;;;17.00;66.50;;;;;;5072925;28;966;-69
2023/04/08 01:34:32;;;;;;;;;;;16.90;65.70;;;;;;5072873;28;1061;-72
2023/04/08 01:36:57;;;;;;;;;;;16.90;65.70;;;;;;5077003;28;1441;-68
2023/04/08 01:39:23;;;;;;;;;;;16.90;65.70;;;;;;5075092;28;908;-69
2023/04/08 01:41:48;;;;;;;;;;;16.90;65.70;;;;;;5071976;28;886;-71
2023/04/08 01:44:14;;;;;;;;;;;16.90;65.80;;;;;;5074116;28;858;-69
2023/04/08 01:46:40;;;;;;;;;;;16.90;65.80;;;;;;5072919;28;1189;-69
2023/04/08 01:49:05;;;;;;;;;;;16.90;65.80;;;;;;5060710;28;1965;-69
2023/04/08 01:51:31;;;;;;;;;;;16.90;65.70;;;;;;5077869;28;880;-69
2023/04/08 01:53:56;;;;;;;;;;;16.90;65.80;;;;;;5080907;28;866;-68
2023/04/08 01:56:22;;;;;;;;;;;16.90;65.80;;;;;;5078174;28;1239;-68
2023/04/08 01:58:49;;;;;;;;;;;16.90;65.80;;;;;;5081879;28;1030;-67
2023/04/08 02:01:16;;;;;;;;;;;16.90;65.80;;;;;;5078421;28;927;-67
2023/04/08 02:03:41;;;;;;;;;;;16.90;65.80;;;;;;5074960;28;940;-67
2023/04/08 02:06:07;;;;;;;;;;;16.90;65.80;;;;;;5074593;28;1308;-68
2023/04/08 02:08:33;;;;;;;;;;;16.90;65.80;;;;;;5076811;28;827;-68
2023/04/08 02:10:59;;;;;;;;;;;16.90;65.80;;;;;;5077068;28;1898;-69
2023/04/08 02:13:24;;;;;;;;;;;16.90;65.80;;;;;;5077356;28;1539;-68
2023/04/08 02:15:50;;;;;;;;;;;16.90;65.80;;;;;;5075367;28;1324;-68
2023/04/08 02:18:18;;;;;;;;;;;16.90;65.80;;;;;;5073179;28;1056;-68
2023/04/08 02:20:46;;;;;;;;;;;16.90;65.80;;;;;;5073578;28;962;-69
2023/04/08 02:23:19;;;;;;;;;;;16.90;65.80;;;;;;5080499;28;903;-70
2023/04/08 02:25:44;;;;;;;;;;;16.90;65.80;;;;;;5060908;28;1193;-69
2023/04/08 02:28:10;;;;;;;;;;;16.90;65.90;;;;;;5074159;28;847;-69
2023/04/08 02:30:42;;;;;;;;;;;16.90;65.90;;;;;;5072164;28;1898;-70
2023/04/08 02:33:08;;;;;;;;;;;16.90;65.90;;;;;;5073359;28;1296;-69
2023/04/08 02:35:34;;;;;;;;;;;16.90;65.90;;;;;;5073876;28;1219;-68
2023/04/08 02:37:59;;;;;;;;;;;16.90;65.90;;;;;;5085341;28;883;-69
2023/04/08 02:40:26;;;;;;;;;;;16.90;65.90;;;;;;5069242;28;844;-70
2023/04/08 02:42:51;;;;;;;;;;;16.90;65.90;;;;;;5074857;28;876;-70
2023/04/08 02:45:17;;;;;;;;;;;16.90;65.90;;;;;;5074917;28;1364;-70
2023/04/08 02:47:43;;;;;;;;;;;16.90;65.90;;;;;;5073305;28;1277;-70
2023/04/08 02:50:09;;;;;;;;;;;16.90;65.90;;;;;;5071714;28;1957;-70
2023/04/08 02:52:34;;;;;;;;;;;16.90;65.90;;;;;;5076309;28;912;-70
2023/04/08 02:54:59;;;;;;;;;;;16.90;65.90;;;;;;5061317;28;1357;-69
2023/04/08 02:57:25;;;;;;;;;;;16.90;66.00;;;;;;5074108;28;915;-70
2023/04/08 02:59:50;;;;;;;;;;;16.90;65.90;;;;;;5059766;28;1026;-70
2023/04/08 03:02:16;;;;;;;;;;;16.90;65.90;;;;;;5071793;28;935;-69
2023/04/08 03:04:41;;;;;;;;;;;16.90;65.90;;;;;;5070992;28;887;-69
2023/04/08 03:07:07;;;;;;;;;;;16.90;65.90;;;;;;5076044;28;1244;-69
2023/04/08 03:09:32;;;;;;;;;;;16.90;66.00;;;;;;5074066;28;1897;-70
2023/04/08 03:11:58;;;;;;;;;;;16.90;66.00;;;;;;5078676;28;827;-69
2023/04/08 03:14:23;;;;;;;;;;;16.90;66.00;;;;;;5077310;28;914;-68
2023/04/08 03:16:49;;;;;;;;;;;16.90;66.00;;;;;;5069712;28;1259;-69
2023/04/08 03:19:15;;;;;;;;;;;16.90;66.00;;;;;;5078268;28;828;-69
2023/04/08 03:21:40;;;;;;;;;;;16.90;66.00;;;;;;5078081;28;838;-69
2023/04/08 03:24:05;;;;;;;;;;;16.90;66.00;;;;;;5074295;28;875;-68
2023/04/08 03:26:31;;;;;;;;;;;16.90;66.00;;;;;;5074657;28;1199;-69
2023/04/08 03:28:56;;;;;;;;;;;16.90;66.00;;;;;;5073556;28;1960;-69
2023/04/08 03:31:22;;;;;;;;;;;16.90;66.00;;;;;;5073305;28;1801;-69
2023/04/08 03:33:47;;;;;;;;;;;16.90;66.00;;;;;;5073936;28;1434;-69
2023/04/08 03:36:13;;;;;;;;;;;16.90;66.00;;;;;;5075816;28;1339;-69
2023/04/08 03:38:38;;;;;;;;;;;16.90;66.00;;;;;;5076279;28;933;-68
2023/04/08 03:41:04;;;;;;;;;;;16.90;66.10;;;;;;5075470;28;939;-69
2023/04/08 03:43:29;;;;;;;;;;;16.90;66.10;;;;;;5072162;28;986;-69
2023/04/08 03:45:55;;;;;;;;;;;16.90;66.00;;;;;;5071957;28;1259;-69
2023/04/08 03:48:21;;;;;;;;;;;16.90;66.00;;;;;;5072825;28;800;-68
2023/04/08 03:50:46;;;;;;;;;;;16.90;66.00;;;;;;5069323;28;1965;-68
2023/04/08 03:53:12;;;;;;;;;;;16.90;66.00;;;;;;5070586;28;883;-70
2023/04/08 03:55:38;;;;;;;;;;;16.90;66.10;;;;;;5075990;28;1191;-69
2023/04/08 03:58:03;;;;;;;;;;;16.90;66.10;;;;;;5072025;28;1286;-68
2023/04/08 04:00:29;;;;;;;;;;;16.90;66.10;;;;;;5068093;28;804;-68
2023/04/08 04:02:55;;;;;;;;;;;16.80;66.00;;;;;;5072260;28;918;-67
2023/04/08 04:05:20;;;;;;;;;;;16.90;66.10;;;;;;5073255;28;1307;-70
2023/04/08 04:07:46;;;;;;;;;;;16.90;66.10;;;;;;5070493;28;921;-68
2023/04/08 04:10:11;;;;;;;;;;;16.90;66.00;;;;;;5073192;28;1926;-67
2023/04/08 04:12:37;;;;;;;;;;;16.90;66.00;;;;;;5068588;28;804;-68
2023/04/08 04:15:02;;;;;;;;;;;16.90;65.90;;;;;;5075762;28;1290;-67
2023/04/08 04:17:28;;;;;;;;;;;16.90;65.80;;;;;;5076292;28;1010;-67
2023/04/08 04:19:53;;;;;;;;;;;17.00;65.80;;;;;;5077090;28;883;-67
2023/04/08 04:22:19;;;;;;;;;;;17.00;65.60;;;;;;5076117;28;940;-67
2023/04/08 04:24:47;;;;;;;;;;;17.00;65.60;;;;;;5075286;28;1108;-67
2023/04/08 04:27:13;;;;;;;;;;;17.00;65.40;;;;;;5069641;28;1303;-67
2023/04/08 04:29:39;;;;;;;;;;;17.10;65.30;;;;;;5073102;28;1945;-67
2023/04/08 04:32:05;;;;;;;;;;;17.10;65.20;;;;;;5070221;28;1197;-66
2023/04/08 04:34:31;;;;;;;;;;;17.10;65.10;;;;;;5065526;28;1794;-66
2023/04/08 04:36:56;;;;;;;;;;;17.20;65.00;;;;;;5071644;28;1557;-66
2023/04/08 04:39:21;;;;;;;;;;;17.20;64.90;;;;;;5073260;28;1645;-66
2023/04/08 04:41:48;;;;;;;;;;;17.20;64.80;;;;;;5071183;28;828;-66
2023/04/08 04:44:13;;;;;;;;;;;17.20;64.70;;;;;;5071806;28;875;-66
2023/04/08 04:46:39;;;;;;;;;;;17.30;64.70;;;;;;5068864;28;1341;-65
2023/04/08 04:49:05;;;;;;;;;;;17.30;64.60;;;;;;5068714;28;1970;-66
2023/04/08 04:51:31;;;;;;;;;;;17.30;64.50;;;;;;5075342;28;824;-66
2023/04/08 04:53:56;;;;;;;;;;;17.30;64.40;;;;;;5074883;28;902;-67
2023/04/08 04:56:22;;;;;;;;;;;17.30;64.40;;;;;;5071729;28;1266;-67
2023/04/08 04:58:47;;;;;;;;;;;17.30;64.40;;;;;;5075638;28;896;-67
2023/04/08 05:01:13;;;;;;;;;;;17.30;64.30;;;;;;5072066;28;895;-66
2023/04/08 05:03:38;;;;;;;;;;;17.30;64.20;;;;;;5070579;28;892;-66
2023/04/08 05:06:04;;;;;;;;;;;17.40;64.30;;;;;;5072003;28;1919;-66
2023/04/08 05:08:29;;;;;;;;;;;17.40;64.30;;;;;;5074832;28;967;-66
2023/04/08 05:10:55;;;;;;;;;;;17.40;64.20;;;;;;5071827;28;1973;-67
2023/04/08 05:13:21;;;;;;;;;;;17.40;64.20;;;;;;5071351;28;875;-67
2023/04/08 05:15:46;;;;;;;;;;;17.40;64.10;;;;;;5072334;28;1678;-67
2023/04/08 05:18:12;;;;;;;;;;;17.40;64.10;;;;;;5078233;28;1069;-69
2023/04/08 05:20:37;;;;;;;;;;;17.40;64.00;;;;;;5075452;28;898;-69
2023/04/08 05:23:03;;;;;;;;;;;17.40;64.00;;;;;;5070496;28;856;-74
2023/04/08 05:25:29;;;;;;;;;;;17.40;64.00;;;;;;5074563;28;1236;-72
2023/04/08 05:27:54;;;;;;;;;;;17.40;64.00;;;;;;5075543;28;847;-70
2023/04/08 05:30:20;;;;;;;;;;;17.40;64.00;;;;;;5070912;28;1957;-71
2023/04/08 05:32:45;;;;;;;;;;;17.40;64.00;;;;;;5065213;28;1276;-66
2023/04/08 05:35:11;;;;;;;;;;;17.40;64.00;;;;;;5046174;28;1549;-66
2023/04/08 05:37:36;;;;;;;;;;;17.40;64.00;;;;;;5070980;28;1378;-66
2023/04/08 05:40:02;;;;;;;;;;;17.40;64.00;;;;;;5071108;28;836;-71
2023/04/08 05:42:28;;;;;;;;;;;17.40;64.00;;;;;;5072775;28;828;-73
2023/04/08 05:44:53;;;;;;;;;;;17.40;64.00;;;;;;5077450;28;1234;-73
2023/04/08 05:47:19;;;;;;;;;;;17.40;64.00;;;;;;5074090;28;1305;-72
2023/04/08 05:49:44;;;;;;;;;;;17.40;64.00;;;;;;5080440;28;1965;-70
2023/04/08 05:52:10;;;;;;;;;;;17.40;64.00;;;;;;5069287;28;1894;-70
2023/04/08 05:54:35;;;;;;;;;;;17.40;64.10;;;;;;5071197;28;1266;-70
2023/04/08 05:57:01;;;;;;;;;;;17.40;64.10;;;;;;5078487;28;1272;-71
2023/04/08 05:59:26;;;;;;;;;;;17.40;64.10;;;;;;5075953;28;840;-70
2023/04/08 06:01:54;;;;;;;;;;;17.40;64.10;;;;;;5073634;28;847;-69
2023/04/08 06:04:19;;;;;;;;;;;17.40;64.10;;;;;;5081867;28;863;-67
2023/04/08 06:06:45;;;;;;;;;;;17.40;64.10;;;;;;5075787;28;1224;-69
2023/04/08 06:09:10;;;;;;;;;;;17.40;64.20;;;;;;5069222;28;1906;-72
2023/04/08 06:11:36;;;;;;;;;;;17.40;64.20;;;;;;5073270;28;1675;-69
2023/04/08 06:14:01;;;;;;;;;;;17.40;64.20;;;;;;5073526;28;1491;-72
2023/04/08 06:16:26;;;;;;;;;;;17.40;64.30;;;;;;5070952;28;1394;-72
2023/04/08 06:18:52;;;;;;;;;;;17.30;64.20;;;;;;5070811;28;1387;-68
2023/04/08 06:21:17;;;;;;;;;;;17.30;64.30;;;;;;5071816;28;1400;-72
2023/04/08 06:23:43;;;;;;;;;;;17.30;64.30;;;;;;5071419;28;1389;-69
2023/04/08 06:26:08;;;;;;;;;;;17.30;64.30;;;;;;5073205;28;1252;-66
2023/04/08 06:28:34;;;;;;;;;;;17.30;64.30;;;;;;5080476;28;850;-66
2023/04/08 06:30:59;;;;;;;;;;;17.30;64.30;;;;;;5074259;28;2390;-67
2023/04/08 06:33:25;;;;;;;;;;;17.30;64.40;;;;;;5071729;28;1315;-67
2023/04/08 06:35:50;;;;;;;;;;;17.30;64.40;;;;;;5074832;28;1272;-67
2023/04/08 06:38:16;;;;;;;;;;;17.30;64.50;;;;;;5079168;28;1393;-67
2023/04/08 06:40:41;;;;;;;;;;;17.30;64.50;;;;;;5075384;28;831;-67
2023/04/08 06:43:07;;;;;;;;;;;17.30;64.50;;;;;;5076172;28;899;-69
2023/04/08 06:45:33;;;;;;;;;;;17.30;64.50;;;;;;5065971;28;1344;-68
2023/04/08 06:47:58;;;;;;;;;;;17.30;64.50;;;;;;5074766;28;1216;-69
2023/04/08 06:50:24;;;;;;;;;;;17.30;64.60;;;;;;5076700;28;1933;-68
2023/04/08 06:52:49;;;;;;;;;;;17.30;64.60;;;;;;5077502;28;926;-70
2023/04/08 06:55:15;;;;;;;;;;;17.30;64.60;;;;;;5079403;28;1341;-70
2023/04/08 06:57:40;;;;;;;;;;;17.20;64.60;;;;;;5073569;28;827;-69
2023/04/08 07:00:06;;;;;;;;;;;17.20;64.60;;;;;;5071045;28;2124;-69
2023/04/08 07:02:32;;;;;;;;;;;17.20;64.60;;;;;;5070000;28;1902;-68
2023/04/08 07:04:57;;;;;;;;;;;17.20;64.70;;;;;;5072923;28;1220;-68
2023/04/08 07:07:23;;;;;;;;;;;17.20;64.70;;;;;;5068552;28;1721;-68
2023/04/08 07:09:49;;;;;;;;;;;17.20;64.70;;;;;;5069234;28;1910;-68
2023/04/08 07:12:14;;;;;;;;;;;17.20;64.80;;;;;;5074311;28;903;-68
2023/04/08 07:14:40;;;;;;;;;;;17.20;64.80;;;;;;5073736;28;825;-68
2023/04/08 07:17:05;;;;;;;;;;;17.20;64.80;;;;;;5078020;28;1299;-68
2023/04/08 07:19:31;;;;;;;;;;;17.20;64.80;;;;;;5074406;28;874;-68
2023/04/08 07:21:56;;;;;;;;;;;17.20;64.80;;;;;;5071546;28;863;-68
2023/04/08 07:24:22;;;;;;;;;;;17.20;64.90;;;;;;5073727;28;859;-69
2023/04/08 07:26:48;;;;;;;;;;;17.20;64.90;;;;;;5071458;28;1318;-69
2023/04/08 07:29:13;;;;;;;;;;;17.20;64.90;;;;;;5073718;28;1955;-69
2023/04/08 07:31:39;;;;;;;;;;;17.20;64.90;;;;;;5077289;28;832;-69
2023/04/08 07:34:04;;;;;;;;;;;17.20;64.90;;;;;;5071866;28;1323;-69
2023/04/08 07:36:30;;;;;;;;;;;17.20;64.90;;;;;;5071088;28;1293;-69
2023/04/08 07:38:56;;;;;;;;;;;17.20;64.90;;;;;;5076382;28;1462;-68
2023/04/08 07:41:21;;;;;;;;;;;17.20;64.90;;;;;;5077023;28;874;-68
2023/04/08 07:43:47;;;;;;;;;;;17.20;64.90;;;;;;5077105;28;1506;-68
2023/04/08 07:46:12;;;;;;;;;;;17.20;64.90;;;;;;5075804;28;1551;-68
2023/04/08 07:48:38;;;;;;;;;;;17.20;64.80;;;;;;5075219;28;1338;-68
2023/04/08 07:51:04;;;;;;;;;;;17.20;64.80;;;;;;5073789;28;1902;-68
2023/04/08 07:53:29;;;;;;;;;;;17.20;64.70;;;;;;5071640;28;895;-68
2023/04/08 07:55:55;;;;;;;;;;;17.20;64.70;;;;;;5072210;28;1299;-68
2023/04/08 07:58:20;;;;;;;;;;;17.20;64.70;;;;;;5074839;28;904;-68
2023/04/08 08:00:46;;;;;;;;;;;17.20;64.70;;;;;;5072074;28;855;-68
2023/04/08 08:03:11;;;;;;;;;;;17.20;64.60;;;;;;5076668;28;839;-68
2023/04/08 08:05:37;;;;;;;;;;;17.20;65.30;;;;;;5076542;28;1345;-68
2023/04/08 08:08:03;;;;;;;;;;;17.20;64.60;;;;;;5060031;28;855;-68
2023/04/08 08:10:28;;;;;;;;;;;17.20;64.60;;;;;;5076144;28;1914;-68
2023/04/08 08:12:54;;;;;;;;;;;17.20;64.60;;;;;;5072312;28;863;-68
2023/04/08 08:15:19;;;;;;;;;;;17.20;64.60;;;;;;5080922;28;1354;-68
2023/04/08 08:17:45;;;;;;;;;;;17.30;64.60;;;;;;5074004;28;844;-68
2023/04/08 08:20:10;;;;;;;;;;;17.30;64.60;;;;;;5071065;28;906;-68
2023/04/08 08:22:38;;;;;;;;;;;17.30;64.60;;;;;;5073830;28;927;-68
2023/04/08 08:25:04;;;;;;;;;;;17.30;64.60;;;;;;5071842;28;1247;-68
2023/04/08 08:27:29;;;;;;;;;;;17.30;64.50;;;;;;5075035;28;908;-68
2023/04/08 08:29:55;;;;;;;;;;;17.30;64.50;;;;;;5073217;28;1955;-68
2023/04/08 08:32:21;;;;;;;;;;;17.30;64.40;;;;;;5075003;28;895;-68
2023/04/08 08:34:46;;;;;;;;;;;17.30;64.40;;;;;;5075004;28;1452;-68
2023/04/08 08:37:12;;;;;;;;;;;17.30;64.40;;;;;;5072876;28;1432;-68
2023/04/08 08:39:37;;;;;;;;;;;17.30;64.30;;;;;;5073527;28;887;-68
2023/04/08 08:42:03;;;;;;;;;;;17.30;64.30;;;;;;5074261;28;911;-68
2023/04/08 08:44:29;;;;;;;;;;;17.30;64.30;;;;;;5074877;28;855;-68
2023/04/08 08:46:54;;;;;;;;;;;17.30;64.20;;;;;;5073291;28;1337;-68
2023/04/08 08:49:20;;;;;;;;;;;17.40;64.30;;;;;;5077282;28;1898;-68
2023/04/08 08:51:46;;;;;;;;;;;17.40;64.20;;;;;;5073534;28;908;-68
2023/04/08 08:54:12;;;;;;;;;;;17.40;64.20;;;;;;5072833;28;864;-68
2023/04/08 08:56:37;;;;;;;;;;;17.40;64.20;;;;;;5071916;28;1355;-68
2023/04/08 08:59:02;;;;;;;;;;;17.40;64.20;;;;;;5075304;28;831;-68
2023/04/08 09:01:35;;;;;;;;;;;17.40;64.20;;;;;;5073605;28;978;-68
2023/04/08 09:04:09;;;;;;;;;;;17.40;64.10;;;;;;5076900;28;849;-68
2023/04/08 09:06:35;;;;;;;;;;;17.40;64.10;;;;;;5072348;28;1235;-68
2023/04/08 09:09:03;;;;;;;;;;;17.40;64.10;;;;;;5073187;28;1157;-69
2023/04/08 09:11:28;;;;;;;;;;;17.40;64.00;;;;;;5072583;28;891;-68
2023/04/08 09:13:54;;;;;;;;;;;17.40;64.00;;;;;;5076472;28;1260;-68
2023/04/08 09:16:22;;;;;;;;;;;17.40;64.00;;;;;;5072671;28;1357;-68
2023/04/08 09:18:48;;;;;;;;;;;17.40;64.00;;;;;;5070473;28;1274;-68
2023/04/08 09:21:14;;;;;;;;;;;17.40;64.00;;;;;;5070123;28;856;-68
2023/04/08 09:23:44;;;;;;;;;;;17.40;64.00;;;;;;5072370;28;1214;-68
2023/04/08 09:26:10;;;;;;;;;;;17.40;63.90;;;;;;5071990;28;1349;-68
2023/04/08 09:28:36;;;;;;;;;;;17.40;63.90;;;;;;5073589;28;833;-69
2023/04/08 09:31:08;;;;;;;;;;;17.40;63.90;;;;;;5072989;28;1964;-68
2023/04/08 09:33:33;;;;;;;;;;;17.40;63.90;;;;;;5073277;28;1345;-68
2023/04/08 09:35:59;;;;;;;;;;;17.50;64.00;;;;;;5074167;28;1306;-68
2023/04/08 09:38:24;;;;;;;;;;;17.40;63.90;;;;;;5072682;28;1428;-68
2023/04/08 09:40:50;;;;;;;;;;;17.40;63.90;;;;;;5060102;28;935;-68
2023/04/08 09:43:17;;;;;;;;;;;17.40;63.80;;;;;;5069445;28;917;-68
2023/04/08 09:45:42;;;;;;;;;;;17.40;63.90;;;;;;5071839;28;1368;-68
2023/04/08 09:48:11;;;;;;;;;;;17.40;63.90;;;;;;5057353;28;804;-68
2023/04/08 09:50:42;;;;;;;;;;;17.40;63.90;;;;;;5074543;28;1901;-68
2023/04/08 09:53:08;;;;;;;;;;;17.40;63.90;;;;;;5074015;28;878;-68
2023/04/08 09:55:34;;;;;;;;;;;17.50;64.00;;;;;;5072041;28;1358;-68
2023/04/08 09:58:06;;;;;;;;;;;17.40;63.90;;;;;;5076261;28;1279;-68
2023/04/08 10:00:33;;;;;;;;;;;17.40;63.90;;;;;;5068709;28;779;-68
2023/04/08 10:03:19;;;;;;;;;;;17.40;63.90;;;;;;5067486;28;893;-68
2023/04/08 10:05:44;;;;;;;;;;;17.50;64.00;;;;;;5067886;28;1271;-68
2023/04/08 10:08:10;;;;;;;;;;;17.40;63.90;;;;;;5072746;28;1010;-68
2023/04/08 10:10:37;;;;;;;;;;;17.40;63.90;;;;;;5074530;28;1969;-68
2023/04/08 10:13:03;;;;;;;;;;;17.40;63.90;;;;;;5076944;28;852;-68
2023/04/08 10:15:36;;;;;;;;;;;17.50;64.00;;;;;;5077409;28;1589;-68
2023/04/08 10:18:01;;;;;;;;;;;17.40;63.90;;;;;;5081001;28;1578;-68
2023/04/08 10:20:33;;;;;;;;;;;17.50;64.00;;;;;;5077509;28;926;-68
2023/04/08 10:23:02;;;;;;;;;;;17.40;63.90;;;;;;5072310;28;856;-68
2023/04/08 10:25:29;;;;;;;;;;;17.50;64.00;;;;;;5062066;28;1273;-68
2023/04/08 10:27:54;;;;;;;;;;;17.50;64.00;;;;;;5072600;28;872;-68
2023/04/08 10:30:26;;;;;;;;;;;17.40;63.90;;;;;;5073673;28;1922;-68
2023/04/08 10:33:00;;;;;;;;;;;17.50;64.00;;;;;;5075997;28;940;-68
2023/04/08 10:35:30;;;;;;;;;;;17.40;63.90;;;;;;5073508;28;1286;-68
2023/04/08 10:37:56;;;;;;;;;;;17.40;63.90;;;;;;5074156;28;1598;-69
2023/04/08 10:40:21;;;;;;;;;;;17.40;64.00;;;;;;5074168;28;1097;-68
2023/04/08 10:42:47;;;;;;;;;;;17.40;63.90;;;;;;5079743;28;839;-68
2023/04/08 10:45:16;;;;;;;;;;;17.40;64.70;;;;;;5077719;28;1261;-68
2023/04/08 10:47:41;;;;;;;;;;;17.50;64.00;;;;;;5078448;28;907;-68
2023/04/08 10:50:14;;;;;;;;;;;17.40;64.00;;;;;;5074421;28;1897;-68
2023/04/08 10:52:46;;;;;;;;;;;17.40;63.90;;;;;;5072090;28;844;-68
2023/04/08 10:55:11;;;;;;;;;;;17.40;64.00;;;;;;5074237;28;1267;-68
2023/04/08 10:57:39;;;;;;;;;;;17.40;64.10;;;;;;5075055;28;950;-68
2023/04/08 11:00:05;;;;;;;;;;;17.40;64.00;;;;;;5077915;28;876;-68
2023/04/08 11:02:32;;;;;;;;;;;17.40;64.00;;;;;;5081512;28;889;-68
2023/04/08 11:04:57;;;;;;;;;;;17.40;64.00;;;;;;5074315;28;1451;-68
2023/04/08 11:07:24;;;;;;;;;;;17.40;64.00;;;;;;5076934;28;900;-69
2023/04/08 11:09:49;;;;;;;;;;;17.40;64.00;;;;;;5072595;28;1902;-68
2023/04/08 11:12:18;;;;;;;;;;;17.40;64.00;;;;;;5064798;28;1042;-68
2023/04/08 11:14:44;;;;;;;;;;;17.40;64.00;;;;;;5072276;28;867;-68
2023/04/08 11:17:09;;;;;;;;;;;17.40;64.00;;;;;;5074281;28;1285;-68
2023/04/08 11:19:35;;;;;;;;;;;17.40;64.00;;;;;;5075158;28;1500;-68
2023/04/08 11:22:01;;;;;;;;;;;17.40;64.00;;;;;;5079845;28;832;-69
2023/04/08 11:24:27;;;;;;;;;;;17.40;64.00;;;;;;5077060;28;1956;-68
2023/04/08 11:26:52;;;;;;;;;;;17.40;64.00;;;;;;5074097;28;1311;-68
2023/04/08 11:29:18;;;;;;;;;;;17.40;64.00;;;;;;5056029;28;1957;-67
2023/04/08 11:31:43;;;;;;;;;;;17.40;64.00;;;;;;5076111;28;859;-67
2023/04/08 11:34:09;;;;;;;;;;;17.50;64.10;;;;;;5070330;28;1273;-67
2023/04/08 11:36:35;;;;;;;;;;;17.40;64.00;;;;;;5074546;28;1247;-68
2023/04/08 11:39:05;;;;;;;;;;;17.50;64.10;;;;;;5078476;28;924;-67
2023/04/08 11:41:40;;;;;;;;;;;17.50;64.00;;;;;;5077387;28;927;-67
2023/04/08 11:44:06;;;;;;;;;;;17.40;64.00;;;;;;5078649;28;840;-67
2023/04/08 11:46:31;;;;;;;;;;;17.50;64.00;;;;;;5059945;28;1348;-67
2023/04/08 11:49:04;;;;;;;;;;;17.50;64.00;;;;;;5078443;28;1636;-67
2023/04/08 11:51:30;;;;;;;;;;;17.40;63.90;;;;;;5074839;28;1905;-67
2023/04/08 11:53:56;;;;;;;;;;;17.50;64.00;;;;;;5073157;28;851;-67
2023/04/08 11:56:24;;;;;;;;;;;17.50;64.00;;;;;;5078040;28;1282;-68
2023/04/08 11:58:50;;;;;;;;;;;17.50;64.00;;;;;;5076089;28;1315;-68
2023/04/08 12:01:16;;;;;;;;;;;17.50;63.90;;;;;;5069182;28;869;-67
2023/04/08 12:03:54;;;;;;;;;;;17.50;63.90;;;;;;5069864;28;876;-68
2023/04/08 12:06:20;;;;;;;;;;;17.50;63.90;;;;;;5059460;28;1350;-68
2023/04/08 12:08:45;;;;;;;;;;;17.50;63.90;;;;;;5069599;28;2117;-68
2023/04/08 12:11:11;;;;;;;;;;;17.50;63.80;;;;;;5074628;28;1963;-68
2023/04/08 12:13:36;;;;;;;;;;;17.50;63.80;;;;;;5073581;28;970;-69
2023/04/08 12:16:02;;;;;;;;;;;17.50;63.80;;;;;;5072949;28;1818;-69
2023/04/08 12:18:27;;;;;;;;;;;17.50;63.80;;;;;;5070220;28;1356;-70
2023/04/08 12:20:53;;;;;;;;;;;17.50;63.80;;;;;;5073939;28;1303;-69
2023/04/08 12:23:19;;;;;;;;;;;17.50;63.80;;;;;;5075011;28;915;-69
2023/04/08 12:25:44;;;;;;;;;;;17.50;63.70;;;;;;5075074;28;1267;-70
2023/04/08 12:28:10;;;;;;;;;;;17.50;64.20;;;;;;5074018;28;797;-69
2023/04/08 12:30:36;;;;;;;;;;;17.50;63.70;;;;;;5072202;28;1906;-70
2023/04/08 12:33:01;;;;;;;;;;;17.50;63.70;;;;;;5070344;28;1356;-70
2023/04/08 12:35:27;;;;;;;;;;;17.50;63.70;;;;;;5076308;28;1378;-69
2023/04/08 12:37:53;;;;;;;;;;;17.50;63.70;;;;;;5075184;28;2103;-70
2023/04/08 12:40:18;;;;;;;;;;;17.60;63.70;;;;;;5073436;28;1220;-70
2023/04/08 12:42:44;;;;;;;;;;;17.60;63.70;;;;;;5066746;28;1491;-70
2023/04/08 12:45:09;;;;;;;;;;;17.60;63.70;;;;;;5074203;28;1889;-70
2023/04/08 12:47:35;;;;;;;;;;;17.60;63.60;;;;;;5074480;28;1349;-66
2023/04/08 12:50:01;;;;;;;;;;;17.50;63.60;;;;;;5070289;28;1965;-67
2023/04/08 12:52:26;;;;;;;;;;;17.60;63.70;;;;;;5074307;28;1267;-71
2023/04/08 12:54:51;;;;;;;;;;;17.60;63.70;;;;;;5071298;28;2161;-68
2023/04/08 12:57:17;;;;;;;;;;;17.60;63.70;;;;;;5074525;28;1463;-67
2023/04/08 12:59:42;;;;;;;;;;;17.60;63.70;;;;;;5072974;28;1245;-68
2023/04/08 13:02:08;;;;;;;;;;;17.60;63.80;;;;;;5079384;28;1026;-68
2023/04/08 13:04:33;;;;;;;;;;;17.60;63.70;;;;;;5072332;28;2148;-68
2023/04/08 13:06:59;;;;;;;;;;;17.60;63.70;;;;;;5070550;28;1349;-68
2023/04/08 13:09:25;;;;;;;;;;;17.50;63.70;;;;;;5074573;28;1917;-68
2023/04/08 13:11:51;;;;;;;;;;;17.50;63.70;;;;;;5074628;28;1122;-68
2023/04/08 13:14:17;;;;;;;;;;;17.50;63.80;;;;;;5075053;28;885;-68
2023/04/08 13:16:42;;;;;;;;;;;17.50;63.80;;;;;;5076111;28;1284;-68
2023/04/08 13:19:08;;;;;;;;;;;17.50;63.80;;;;;;5074248;28;2744;-68
2023/04/08 13:21:33;;;;;;;;;;;17.50;63.90;;;;;;5070934;28;897;-68
2023/04/08 13:23:59;;;;;;;;;;;17.50;63.80;;;;;;5077018;28;879;-68
2023/04/08 13:26:25;;;;;;;;;;;17.50;63.90;;;;;;5073149;28;1361;-68
2023/04/08 13:28:51;;;;;;;;;;;17.50;63.90;;;;;;5073867;28;856;-68
2023/04/08 13:31:17;;;;;;;;;;;17.50;64.00;;;;;;5074130;28;1973;-68
2023/04/08 13:33:42;;;;;;;;;;;17.50;64.00;;;;;;5071895;28;1358;-68
2023/04/08 13:36:08;;;;;;;;;;;17.50;64.00;;;;;;5069852;28;1374;-68
2023/04/08 13:38:33;;;;;;;;;;;17.50;64.00;;;;;;5071500;28;1327;-68
2023/04/08 13:40:59;;;;;;;;;;;17.40;64.00;;;;;;5075789;28;823;-68
2023/04/08 13:43:24;;;;;;;;;;;17.40;64.10;;;;;;5075279;28;902;-68
2023/04/08 13:45:50;;;;;;;;;;;17.40;64.10;;;;;;5075429;28;1294;-68
2023/04/08 13:48:15;;;;;;;;;;;17.40;64.10;;;;;;5073925;28;859;-68
2023/04/08 13:50:41;;;;;;;;;;;17.40;64.10;;;;;;5075688;28;1907;-68
2023/04/08 13:53:06;;;;;;;;;;;17.40;64.20;;;;;;5073608;28;773;-68
2023/04/08 13:55:32;;;;;;;;;;;17.40;64.20;;;;;;5074601;28;1365;-68
2023/04/08 13:57:57;;;;;;;;;;;17.40;64.20;;;;;;5072818;28;2067;-68
2023/04/08 14:00:24;;;;;;;;;;;17.40;64.20;;;;;;5072080;28;1012;-68
2023/04/08 14:02:50;;;;;;;;;;;17.40;64.30;;;;;;5079820;28;1206;-68
2023/04/08 14:05:15;;;;;;;;;;;17.40;64.30;;;;;;5063965;28;1348;-69
2023/04/08 14:07:41;;;;;;;;;;;17.40;64.40;;;;;;5069521;28;2110;-68
2023/04/08 14:10:07;;;;;;;;;;;17.40;64.30;;;;;;5071741;28;2059;-68
2023/04/08 14:12:32;;;;;;;;;;;17.40;64.40;;;;;;5069697;28;1111;-68
2023/04/08 14:14:58;;;;;;;;;;;17.40;64.40;;;;;;5071828;28;1497;-68
2023/04/08 14:17:23;;;;;;;;;;;17.40;64.50;;;;;;5056295;28;1066;-69
2023/04/08 14:19:49;;;;;;;;;;;17.30;64.40;;;;;;5074865;28;932;-67
2023/04/08 14:22:16;;;;;;;;;;;17.30;64.40;;;;;;5073149;28;844;-67
2023/04/08 14:24:42;;;;;;;;;;;17.30;64.60;;;;;;5073019;28;924;-67
2023/04/08 14:27:08;;;;;;;;;;;17.30;64.50;;;;;;5069746;28;1275;-67
2023/04/08 14:29:33;;;;;;;;;;;17.30;64.50;;;;;;5075015;28;1903;-67